Pritchett, Texas
Current Conditions -  °F | °C
As of 7:15 AM on Saturday 25 Oct 2014 (Local Time) from KJDD Reporting Station
Clear Clear  
Wind Chill: 16°   Ceiling: Unl
Heat Index: 16°   Visibility: 10mi
Dew Point: 16°   Wind: 7mph
Humidity: 100%   Direction: 200°SSW
Pressure: 30.15"   Gusts: NA
Location:  32.6267°N, 95.0888°W
Report Text: KJDD 251215Z AUTO 20006KT 10SM CLR 16/16 A3015 RMK AO2
Loading
Personal Weather Stations






























Interactive Weather Map
Tropical Storm Tracking
New forecast layout! Learn more

10-Day Weather Forecast

Advertisements
Track Severe Weather on mobile